North Newton, Pennsylvania
Current Conditions -  °F | °C
As of 8:56 AM on Friday 19 Dec 2014 (Local Time) from KCXY Reporting Station
Overcast Overcast  
Wind Chill: 30°   Ceiling: 3200
Heat Index: 36°   Visibility: 10mi
Dew Point: 24°   Wind: 8mph
Humidity: 62%   Direction: 280°W
Pressure: 30.12"   Gusts: NA
Location:  40.183°N, 77.4166°W
Report Text: KCXY 191356Z 28007KT 10SM OVC032 02/M04 A3012 RMK AO2 SLP205 T00221044
Loading
Personal Weather Stations






























Interactive Weather Map New forecast layout! Learn more

10-Day Weather Forecast

Advertisements
Track Severe Weather on mobile